sensor_id;sensor_type;location;lat;lon;timestamp;temperature;humidity
13440;DHT22;6792;57.698;11.946;2023-07-28T00:00:10;21.90;50.80
13440;DHT22;6792;57.698;11.946;2023-07-28T00:02:40;21.90;50.80
13440;DHT22;6792;57.698;11.946;2023-07-28T00:05:09;21.80;50.80
13440;DHT22;6792;57.698;11.946;2023-07-28T00:07:38;21.80;50.80
13440;DHT22;6792;57.698;11.946;2023-07-28T00:10:10;21.80;50.90
13440;DHT22;6792;57.698;11.946;2023-07-28T00:12:40;21.80;51.00
13440;DHT22;6792;57.698;11.946;2023-07-28T00:15:10;21.70;50.40
13440;DHT22;6792;57.698;11.946;2023-07-28T00:17:39;21.70;50.50
13440;DHT22;6792;57.698;11.946;2023-07-28T00:20:11;21.70;51.10
13440;DHT22;6792;57.698;11.946;2023-07-28T00:22:41;21.70;51.80
13440;DHT22;6792;57.698;11.946;2023-07-28T00:25:10;21.70;51.20
13440;DHT22;6792;57.698;11.946;2023-07-28T00:27:39;21.60;51.10
13440;DHT22;6792;57.698;11.946;2023-07-28T00:30:11;21.60;50.60
13440;DHT22;6792;57.698;11.946;2023-07-28T00:32:40;21.60;51.20
13440;DHT22;6792;57.698;11.946;2023-07-28T00:35:10;21.60;51.30
13440;DHT22;6792;57.698;11.946;2023-07-28T00:37:39;21.60;51.30
13440;DHT22;6792;57.698;11.946;2023-07-28T00:40:10;21.50;51.30
13440;DHT22;6792;57.698;11.946;2023-07-28T00:42:40;21.60;51.90
13440;DHT22;6792;57.698;11.946;2023-07-28T00:45:10;21.50;51.30
13440;DHT22;6792;57.698;11.946;2023-07-28T00:47:39;21.50;51.30
13440;DHT22;6792;57.698;11.946;2023-07-28T00:50:10;21.40;51.30
13440;DHT22;6792;57.698;11.946;2023-07-28T00:52:39;21.40;51.40
13440;DHT22;6792;57.698;11.946;2023-07-28T00:55:09;21.40;51.40
13440;DHT22;6792;57.698;11.946;2023-07-28T00:57:38;21.40;51.40
13440;DHT22;6792;57.698;11.946;2023-07-28T01:00:10;21.40;51.40
13440;DHT22;6792;57.698;11.946;2023-07-28T01:02:39;21.40;51.50
13440;DHT22;6792;57.698;11.946;2023-07-28T01:05:09;21.40;51.50
13440;DHT22;6792;57.698;11.946;2023-07-28T01:07:42;21.40;52.10
13440;DHT22;6792;57.698;11.946;2023-07-28T01:10:14;21.30;50.90
13440;DHT22;6792;57.698;11.946;2023-07-28T01:12:44;21.30;51.50
13440;DHT22;6792;57.698;11.946;2023-07-28T01:15:13;21.20;51.50
13440;DHT22;6792;57.698;11.946;2023-07-28T01:17:43;21.20;51.60
13440;DHT22;6792;57.698;11.946;2023-07-28T01:20:12;21.20;51.60
13440;DHT22;6792;57.698;11.946;2023-07-28T01:23:00;21.20;51.60
13440;DHT22;6792;57.698;11.946;2023-07-28T01:25:28;21.20;51.90
13440;DHT22;6792;57.698;11.946;2023-07-28T01:27:58;21.20;51.70
13440;DHT22;6792;57.698;11.946;2023-07-28T01:30:29;21.10;51.90
13440;DHT22;6792;57.698;11.946;2023-07-28T01:32:58;21.10;51.70
13440;DHT22;6792;57.698;11.946;2023-07-28T01:35:27;21.10;51.70
13440;DHT22;6792;57.698;11.946;2023-07-28T01:37:56;21.10;51.70
13440;DHT22;6792;57.698;11.946;2023-07-28T01:40:26;21.10;51.70
13440;DHT22;6792;57.698;11.946;2023-07-28T01:42:58;21.10;51.80
13440;DHT22;6792;57.698;11.946;2023-07-28T01:45:27;21.00;51.80
13440;DHT22;6792;57.698;11.946;2023-07-28T01:47:56;21.00;51.70
13440;DHT22;6792;57.698;11.946;2023-07-28T01:50:25;21.00;51.80
13440;DHT22;6792;57.698;11.946;2023-07-28T01:52:55;21.00;51.80
13440;DHT22;6792;57.698;11.946;2023-07-28T01:55:24;21.00;51.80
13440;DHT22;6792;57.698;11.946;2023-07-28T01:57:57;21.00;51.90
13440;DHT22;6792;57.698;11.946;2023-07-28T02:00:27;21.00;51.90
13440;DHT22;6792;57.698;11.946;2023-07-28T02:02:57;20.90;51.90
13440;DHT22;6792;57.698;11.946;2023-07-28T02:05:28;20.90;51.90
13440;DHT22;6792;57.698;11.946;2023-07-28T02:07:57;20.90;52.00
13440;DHT22;6792;57.698;11.946;2023-07-28T02:10:29;20.90;51.50
13440;DHT22;6792;57.698;11.946;2023-07-28T02:12:58;20.90;52.00
13440;DHT22;6792;57.698;11.946;2023-07-28T02:15:28;20.90;52.00
13440;DHT22;6792;57.698;11.946;2023-07-28T02:17:57;20.90;52.10
13440;DHT22;6792;57.698;11.946;2023-07-28T02:20:26;20.90;51.50
13440;DHT22;6792;57.698;11.946;2023-07-28T02:22:55;20.90;52.10
13440;DHT22;6792;57.698;11.946;2023-07-28T02:25:25;20.80;52.10
13440;DHT22;6792;57.698;11.946;2023-07-28T02:27:54;20.80;52.10
13440;DHT22;6792;57.698;11.946;2023-07-28T02:30:23;20.80;52.10
13440;DHT22;6792;57.698;11.946;2023-07-28T02:32:52;20.80;52.20
13440;DHT22;6792;57.698;11.946;2023-07-28T02:35:22;20.70;52.20
13440;DHT22;6792;57.698;11.946;2023-07-28T02:37:51;20.70;52.30
13440;DHT22;6792;57.698;11.946;2023-07-28T02:40:20;20.70;52.30
13440;DHT22;6792;57.698;11.946;2023-07-28T02:42:51;20.70;52.40
13440;DHT22;6792;57.698;11.946;2023-07-28T02:45:23;20.70;52.30
13440;DHT22;6792;57.698;11.946;2023-07-28T02:47:52;20.70;52.40
13440;DHT22;6792;57.698;11.946;2023-07-28T02:50:22;20.70;52.40
13440;DHT22;6792;57.698;11.946;2023-07-28T02:52:52;20.60;52.40
13440;DHT22;6792;57.698;11.946;2023-07-28T02:55:21;20.60;52.40
13440;DHT22;6792;57.698;11.946;2023-07-28T02:57:53;20.60;52.30
13440;DHT22;6792;57.698;11.946;2023-07-28T03:00:22;20.60;52.40
13440;DHT22;6792;57.698;11.946;2023-07-28T03:02:52;20.60;52.40
13440;DHT22;6792;57.698;11.946;2023-07-28T03:05:21;20.60;52.40
13440;DHT22;6792;57.698;11.946;2023-07-28T03:07:50;20.50;52.30
13440;DHT22;6792;57.698;11.946;2023-07-28T03:10:20;20.50;52.40
13440;DHT22;6792;57.698;11.946;2023-07-28T03:12:49;20.50;52.40
13440;DHT22;6792;57.698;11.946;2023-07-28T03:15:18;20.50;53.00
13440;DHT22;6792;57.698;11.946;2023-07-28T03:17:50;20.50;52.40
13440;DHT22;6792;57.698;11.946;2023-07-28T03:20:21;20.50;51.90
13440;DHT22;6792;57.698;11.946;2023-07-28T03:22:53;20.50;52.50
13440;DHT22;6792;57.698;11.946;2023-07-28T03:25:22;20.40;52.50
13440;DHT22;6792;57.698;11.946;2023-07-28T03:27:52;20.40;52.50
13440;DHT22;6792;57.698;11.946;2023-07-28T03:30:21;20.40;52.90
13440;DHT22;6792;57.698;11.946;2023-07-28T03:32:50;20.40;52.50
13440;DHT22;6792;57.698;11.946;2023-07-28T03:35:23;20.40;52.50
13440;DHT22;6792;57.698;11.946;2023-07-28T03:37:52;20.40;52.00
13440;DHT22;6792;57.698;11.946;2023-07-28T03:40:24;20.40;52.60
13440;DHT22;6792;57.698;11.946;2023-07-28T03:42:53;20.40;52.60
13440;DHT22;6792;57.698;11.946;2023-07-28T03:45:23;20.40;52.60
13440;DHT22;6792;57.698;11.946;2023-07-28T03:47:54;20.30;53.00
13440;DHT22;6792;57.698;11.946;2023-07-28T03:50:23;20.30;52.10
13440;DHT22;6792;57.698;11.946;2023-07-28T03:52:54;20.30;52.10
13440;DHT22;6792;57.698;11.946;2023-07-28T03:55:23;20.30;52.60
13440;DHT22;6792;57.698;11.946;2023-07-28T03:57:52;20.30;52.60
13440;DHT22;6792;57.698;11.946;2023-07-28T04:00:22;20.30;52.70
13440;DHT22;6792;57.698;11.946;2023-07-28T04:02:51;20.30;52.10
13440;DHT22;6792;57.698;11.946;2023-07-28T04:07:51;20.40;52.20
13440;DHT22;6792;57.698;11.946;2023-07-28T04:10:21;20.40;52.20
13440;DHT22;6792;57.698;11.946;2023-07-28T04:12:51;20.40;52.70
13440;DHT22;6792;57.698;11.946;2023-07-28T04:15:20;20.40;52.60
13440;DHT22;6792;57.698;11.946;2023-07-28T04:17:51;20.40;52.60
13440;DHT22;6792;57.698;11.946;2023-07-28T04:20:21;20.40;52.60
13440;DHT22;6792;57.698;11.946;2023-07-28T04:22:51;20.40;52.50
13440;DHT22;6792;57.698;11.946;2023-07-28T04:25:21;20.40;52.60
13440;DHT22;6792;57.698;11.946;2023-07-28T04:27:50;20.40;52.50
13440;DHT22;6792;57.698;11.946;2023-07-28T04:30:20;20.40;52.50
13440;DHT22;6792;57.698;11.946;2023-07-28T04:32:51;20.40;52.50
13440;DHT22;6792;57.698;11.946;2023-07-28T04:35:22;20.50;52.60
13440;DHT22;6792;57.698;11.946;2023-07-28T04:37:52;20.50;52.60
13440;DHT22;6792;57.698;11.946;2023-07-28T04:40:24;20.50;52.50
13440;DHT22;6792;57.698;11.946;2023-07-28T04:42:53;20.50;52.60
13440;DHT22;6792;57.698;11.946;2023-07-28T04:45:22;20.60;52.50
13440;DHT22;6792;57.698;11.946;2023-07-28T04:47:51;20.50;52.00
13440;DHT22;6792;57.698;11.946;2023-07-28T04:50:23;20.60;52.50
13440;DHT22;6792;57.698;11.946;2023-07-28T04:52:53;20.60;52.50
13440;DHT22;6792;57.698;11.946;2023-07-28T04:55:22;20.50;52.40
13440;DHT22;6792;57.698;11.946;2023-07-28T04:57:51;20.60;52.50
13440;DHT22;6792;57.698;11.946;2023-07-28T05:00:22;20.60;52.40
13440;DHT22;6792;57.698;11.946;2023-07-28T05:02:51;20.60;52.40
13440;DHT22;6792;57.698;11.946;2023-07-28T05:05:20;20.70;52.50
13440;DHT22;6792;57.698;11.946;2023-07-28T05:07:50;20.70;52.50
13440;DHT22;6792;57.698;11.946;2023-07-28T05:10:21;20.70;52.40
13440;DHT22;6792;57.698;11.946;2023-07-28T05:12:50;20.70;52.40
13440;DHT22;6792;57.698;11.946;2023-07-28T05:15:20;20.80;52.40
13440;DHT22;6792;57.698;11.946;2023-07-28T05:17:49;20.80;52.40
13440;DHT22;6792;57.698;11.946;2023-07-28T05:20:20;20.90;52.40
13440;DHT22;6792;57.698;11.946;2023-07-28T05:22:51;20.90;52.30
13440;DHT22;6792;57.698;11.946;2023-07-28T05:25:20;20.90;52.30
13440;DHT22;6792;57.698;11.946;2023-07-28T05:27:50;21.00;52.30
13440;DHT22;6792;57.698;11.946;2023-07-28T05:30:19;21.00;52.30
13440;DHT22;6792;57.698;11.946;2023-07-28T05:32:49;21.10;52.30
13440;DHT22;6792;57.698;11.946;2023-07-28T05:35:18;21.10;51.70
13440;DHT22;6792;57.698;11.946;2023-07-28T05:37:48;21.20;52.20
13440;DHT22;6792;57.698;11.946;2023-07-28T05:40:17;21.20;52.20
13440;DHT22;6792;57.698;11.946;2023-07-28T05:42:46;21.30;52.10
13440;DHT22;6792;57.698;11.946;2023-07-28T05:45:16;21.30;52.10
13440;DHT22;6792;57.698;11.946;2023-07-28T05:47:45;21.40;52.10
13440;DHT22;6792;57.698;11.946;2023-07-28T05:50:14;21.40;52.60
13440;DHT22;6792;57.698;11.946;2023-07-28T05:52:44;21.50;52.00
13440;DHT22;6792;57.698;11.946;2023-07-28T05:55:13;21.60;52.00
13440;DHT22;6792;57.698;11.946;2023-07-28T05:57:57;21.60;52.00
13440;DHT22;6792;57.698;11.946;2023-07-28T06:00:27;21.70;51.90
13440;DHT22;6792;57.698;11.946;2023-07-28T06:02:56;21.70;51.30
13440;DHT22;6792;57.698;11.946;2023-07-28T06:05:26;21.80;51.90
13440;DHT22;6792;57.698;11.946;2023-07-28T06:07:55;21.90;51.80
13440;DHT22;6792;57.698;11.946;2023-07-28T06:10:24;21.90;51.30
13440;DHT22;6792;57.698;11.946;2023-07-28T06:12:53;22.00;51.80
13440;DHT22;6792;57.698;11.946;2023-07-28T06:15:22;22.00;51.70
13440;DHT22;6792;57.698;11.946;2023-07-28T06:17:52;22.10;51.70
13440;DHT22;6792;57.698;11.946;2023-07-28T06:20:21;22.20;51.80
13440;DHT22;6792;57.698;11.946;2023-07-28T06:22:50;22.20;52.30
13440;DHT22;6792;57.698;11.946;2023-07-28T06:28:01;22.30;51.00
13440;DHT22;6792;57.698;11.946;2023-07-28T06:30:30;22.40;51.60
13440;DHT22;6792;57.698;11.946;2023-07-28T06:33:00;22.50;51.50
13440;DHT22;6792;57.698;11.946;2023-07-28T06:35:31;22.50;51.50
13440;DHT22;6792;57.698;11.946;2023-07-28T06:38:00;22.50;51.50
13440;DHT22;6792;57.698;11.946;2023-07-28T06:40:30;22.50;51.40
13440;DHT22;6792;57.698;11.946;2023-07-28T06:42:59;22.50;51.40
13440;DHT22;6792;57.698;11.946;2023-07-28T06:45:28;22.50;51.30
13440;DHT22;6792;57.698;11.946;2023-07-28T06:47:58;22.60;51.30
13440;DHT22;6792;57.698;11.946;2023-07-28T06:50:27;22.60;51.40
13440;DHT22;6792;57.698;11.946;2023-07-28T06:52:56;22.70;51.10
13440;DHT22;6792;57.698;11.946;2023-07-28T06:55:25;22.80;51.10
13440;DHT22;6792;57.698;11.946;2023-07-28T06:57:54;22.90;50.90
13440;DHT22;6792;57.698;11.946;2023-07-28T07:00:24;23.00;50.80
13440;DHT22;6792;57.698;11.946;2023-07-28T07:02:53;23.00;50.50
13440;DHT22;6792;57.698;11.946;2023-07-28T07:05:22;23.10;50.30
13440;DHT22;6792;57.698;11.946;2023-07-28T07:07:52;23.20;49.60
13440;DHT22;6792;57.698;11.946;2023-07-28T07:10:22;23.40;49.90
13440;DHT22;6792;57.698;11.946;2023-07-28T07:12:51;23.60;49.00
13440;DHT22;6792;57.698;11.946;2023-07-28T07:15:20;23.80;49.10
13440;DHT22;6792;57.698;11.946;2023-07-28T07:17:51;23.90;48.70
13440;DHT22;6792;57.698;11.946;2023-07-28T07:20:20;24.00;48.30
13440;DHT22;6792;57.698;11.946;2023-07-28T07:22:52;24.10;48.00
13440;DHT22;6792;57.698;11.946;2023-07-28T07:25:22;24.20;48.20
13440;DHT22;6792;57.698;11.946;2023-07-28T07:27:51;24.20;47.10
13440;DHT22;6792;57.698;11.946;2023-07-28T07:30:20;24.30;47.50
13440;DHT22;6792;57.698;11.946;2023-07-28T07:32:50;24.30;47.20
13440;DHT22;6792;57.698;11.946;2023-07-28T07:35:19;24.30;47.00
13440;DHT22;6792;57.698;11.946;2023-07-28T07:37:48;24.30;46.80
13440;DHT22;6792;57.698;11.946;2023-07-28T07:40:18;24.20;46.60
13440;DHT22;6792;57.698;11.946;2023-07-28T07:42:51;24.20;46.50
13440;DHT22;6792;57.698;11.946;2023-07-28T07:45:20;24.20;45.90
13440;DHT22;6792;57.698;11.946;2023-07-28T07:47:49;24.20;46.50
13440;DHT22;6792;57.698;11.946;2023-07-28T07:50:18;24.20;46.40
13440;DHT22;6792;57.698;11.946;2023-07-28T07:52:51;24.20;45.70
13440;DHT22;6792;57.698;11.946;2023-07-28T07:55:20;24.20;45.60
13440;DHT22;6792;57.698;11.946;2023-07-28T07:57:50;24.20;45.80
13440;DHT22;6792;57.698;11.946;2023-07-28T08:00:20;24.20;45.50
13440;DHT22;6792;57.698;11.946;2023-07-28T08:02:49;24.20;45.40
13440;DHT22;6792;57.698;11.946;2023-07-28T08:05:18;24.20;45.40
13440;DHT22;6792;57.698;11.946;2023-07-28T08:07:48;24.20;45.20
13440;DHT22;6792;57.698;11.946;2023-07-28T08:10:18;24.20;45.10
13440;DHT22;6792;57.698;11.946;2023-07-28T08:12:51;24.20;45.00
13440;DHT22;6792;57.698;11.946;2023-07-28T08:15:20;24.20;45.00
13440;DHT22;6792;57.698;11.946;2023-07-28T08:17:53;24.20;45.00
13440;DHT22;6792;57.698;11.946;2023-07-28T08:20:22;24.20;45.00
13440;DHT22;6792;57.698;11.946;2023-07-28T08:22:54;24.20;45.00
13440;DHT22;6792;57.698;11.946;2023-07-28T08:25:23;24.20;45.00
13440;DHT22;6792;57.698;11.946;2023-07-28T08:27:52;24.30;44.80
13440;DHT22;6792;57.698;11.946;2023-07-28T08:30:22;24.30;44.70
13440;DHT22;6792;57.698;11.946;2023-07-28T08:32:51;24.40;44.80
13440;DHT22;6792;57.698;11.946;2023-07-28T08:35:22;24.40;44.80
13440;DHT22;6792;57.698;11.946;2023-07-28T08:37:54;24.40;44.30
13440;DHT22;6792;57.698;11.946;2023-07-28T08:40:23;24.40;44.40
13440;DHT22;6792;57.698;11.946;2023-07-28T08:42:55;24.40;45.10
13440;DHT22;6792;57.698;11.946;2023-07-28T08:45:24;24.40;45.20
13440;DHT22;6792;57.698;11.946;2023-07-28T08:47:53;24.40;45.30
13440;DHT22;6792;57.698;11.946;2023-07-28T08:50:23;24.40;45.20
13440;DHT22;6792;57.698;11.946;2023-07-28T08:52:52;24.40;45.20
13440;DHT22;6792;57.698;11.946;2023-07-28T08:55:22;24.50;45.10
13440;DHT22;6792;57.698;11.946;2023-07-28T08:57:51;24.50;45.00
13440;DHT22;6792;57.698;11.946;2023-07-28T09:00:22;24.50;44.90
13440;DHT22;6792;57.698;11.946;2023-07-28T09:02:53;24.50;44.90
13440;DHT22;6792;57.698;11.946;2023-07-28T09:05:22;24.50;45.00
13440;DHT22;6792;57.698;11.946;2023-07-28T09:07:52;24.50;44.90
13440;DHT22;6792;57.698;11.946;2023-07-28T09:10:21;24.50;44.80
13440;DHT22;6792;57.698;11.946;2023-07-28T09:12:52;24.50;44.80
13440;DHT22;6792;57.698;11.946;2023-07-28T09:15:21;24.50;44.80
13440;DHT22;6792;57.698;11.946;2023-07-28T09:17:50;24.50;44.30
13440;DHT22;6792;57.698;11.946;2023-07-28T09:20:20;24.50;44.90
13440;DHT22;6792;57.698;11.946;2023-07-28T09:22:50;24.50;44.40
13440;DHT22;6792;57.698;11.946;2023-07-28T09:25:20;24.50;45.00
13440;DHT22;6792;57.698;11.946;2023-07-28T09:27:51;24.50;45.00
13440;DHT22;6792;57.698;11.946;2023-07-28T09:30:21;24.50;44.50
13440;DHT22;6792;57.698;11.946;2023-07-28T09:32:53;24.50;45.00
13440;DHT22;6792;57.698;11.946;2023-07-28T09:35:24;24.50;44.50
13440;DHT22;6792;57.698;11.946;2023-07-28T09:37:53;24.50;45.10
13440;DHT22;6792;57.698;11.946;2023-07-28T09:40:24;24.50;45.70
13440;DHT22;6792;57.698;11.946;2023-07-28T09:42:55;24.50;44.60
13440;DHT22;6792;57.698;11.946;2023-07-28T09:45:24;24.50;45.20
13440;DHT22;6792;57.698;11.946;2023-07-28T09:47:55;24.50;45.20
13440;DHT22;6792;57.698;11.946;2023-07-28T09:50:28;24.60;45.30
13440;DHT22;6792;57.698;11.946;2023-07-28T09:55:41;24.50;44.60
13440;DHT22;6792;57.698;11.946;2023-07-28T09:58:13;24.50;44.60
13440;DHT22;6792;57.698;11.946;2023-07-28T10:00:43;24.60;45.30
13440;DHT22;6792;57.698;11.946;2023-07-28T10:03:14;24.60;45.30
13440;DHT22;6792;57.698;11.946;2023-07-28T10:05:45;24.60;45.30
13440;DHT22;6792;57.698;11.946;2023-07-28T10:08:15;24.60;45.30
13440;DHT22;6792;57.698;11.946;2023-07-28T10:10:44;24.60;45.30
13440;DHT22;6792;57.698;11.946;2023-07-28T10:13:21;24.60;45.30
13440;DHT22;6792;57.698;11.946;2023-07-28T10:15:51;24.60;45.20
13440;DHT22;6792;57.698;11.946;2023-07-28T10:18:21;24.60;45.20
13440;DHT22;6792;57.698;11.946;2023-07-28T10:20:50;24.70;45.20
13440;DHT22;6792;57.698;11.946;2023-07-28T10:23:21;24.60;45.10
13440;DHT22;6792;57.698;11.946;2023-07-28T10:25:58;24.70;44.50
13440;DHT22;6792;57.698;11.946;2023-07-28T10:28:29;24.70;45.10
13440;DHT22;6792;57.698;11.946;2023-07-28T10:31:00;24.70;44.50
13440;DHT22;6792;57.698;11.946;2023-07-28T10:33:33;24.70;44.40
13440;DHT22;6792;57.698;11.946;2023-07-28T10:36:14;24.70;44.90
13440;DHT22;6792;57.698;11.946;2023-07-28T10:38:43;24.70;44.90
13440;DHT22;6792;57.698;11.946;2023-07-28T10:41:15;24.70;44.90
13440;DHT22;6792;57.698;11.946;2023-07-28T10:43:45;24.70;44.90
13440;DHT22;6792;57.698;11.946;2023-07-28T10:46:18;24.70;44.90
13440;DHT22;6792;57.698;11.946;2023-07-28T10:48:49;24.70;44.90
13440;DHT22;6792;57.698;11.946;2023-07-28T10:51:23;24.70;45.00
13440;DHT22;6792;57.698;11.946;2023-07-28T10:53:55;24.70;45.00
13440;DHT22;6792;57.698;11.946;2023-07-28T10:56:26;24.70;45.20
13440;DHT22;6792;57.698;11.946;2023-07-28T10:58:59;24.70;45.30
13440;DHT22;6792;57.698;11.946;2023-07-28T11:01:36;24.80;45.40
13440;DHT22;6792;57.698;11.946;2023-07-28T11:04:11;24.80;44.80
13440;DHT22;6792;57.698;11.946;2023-07-28T11:06:42;24.80;45.50
13440;DHT22;6792;57.698;11.946;2023-07-28T11:09:12;24.80;45.50
13440;DHT22;6792;57.698;11.946;2023-07-28T11:11:42;24.80;45.60
13440;DHT22;6792;57.698;11.946;2023-07-28T11:14:12;24.80;45.60
13440;DHT22;6792;57.698;11.946;2023-07-28T11:16:41;24.90;45.70
13440;DHT22;6792;57.698;11.946;2023-07-28T11:19:13;24.90;45.70
13440;DHT22;6792;57.698;11.946;2023-07-28T11:21:43;24.90;45.20
13440;DHT22;6792;57.698;11.946;2023-07-28T11:24:17;25.00;45.80
13440;DHT22;6792;57.698;11.946;2023-07-28T11:26:43;25.00;45.20
13440;DHT22;6792;57.698;11.946;2023-07-28T11:29:14;25.10;45.80
13440;DHT22;6792;57.698;11.946;2023-07-28T11:31:43;25.10;45.80
13440;DHT22;6792;57.698;11.946;2023-07-28T11:34:14;25.20;45.80
13440;DHT22;6792;57.698;11.946;2023-07-28T11:36:44;25.20;46.40
13440;DHT22;6792;57.698;11.946;2023-07-28T11:39:13;25.30;45.80
13440;DHT22;6792;57.698;11.946;2023-07-28T11:41:43;25.40;45.70
13440;DHT22;6792;57.698;11.946;2023-07-28T11:44:15;25.40;45.60
13440;DHT22;6792;57.698;11.946;2023-07-28T11:46:44;25.40;45.60
13440;DHT22;6792;57.698;11.946;2023-07-28T11:49:14;25.50;45.50
13440;DHT22;6792;57.698;11.946;2023-07-28T11:51:48;25.60;46.10
13440;DHT22;6792;57.698;11.946;2023-07-28T11:54:19;25.60;45.40
13440;DHT22;6792;57.698;11.946;2023-07-28T11:56:50;25.60;44.90
13440;DHT22;6792;57.698;11.946;2023-07-28T11:59:21;25.70;45.40
13440;DHT22;6792;57.698;11.946;2023-07-28T12:01:58;25.80;45.40
13440;DHT22;6792;57.698;11.946;2023-07-28T12:04:28;25.90;45.20
13440;DHT22;6792;57.698;11.946;2023-07-28T12:07:07;25.90;45.10
13440;DHT22;6792;57.698;11.946;2023-07-28T12:09:52;26.10;45.00
13440;DHT22;6792;57.698;11.946;2023-07-28T12:12:24;26.20;45.60
13440;DHT22;6792;57.698;11.946;2023-07-28T12:14:54;26.20;45.00
13440;DHT22;6792;57.698;11.946;2023-07-28T12:17:25;26.30;44.90
13440;DHT22;6792;57.698;11.946;2023-07-28T12:20:04;26.40;44.10
13440;DHT22;6792;57.698;11.946;2023-07-28T12:22:36;26.50;44.10
13440;DHT22;6792;57.698;11.946;2023-07-28T12:25:06;26.60;44.60
13440;DHT22;6792;57.698;11.946;2023-07-28T12:27:35;26.70;44.40
13440;DHT22;6792;57.698;11.946;2023-07-28T12:30:07;26.80;44.20
13440;DHT22;6792;57.698;11.946;2023-07-28T12:32:38;26.90;44.00
13440;DHT22;6792;57.698;11.946;2023-07-28T12:35:08;27.00;43.80
13440;DHT22;6792;57.698;11.946;2023-07-28T12:37:37;27.10;43.70
13440;DHT22;6792;57.698;11.946;2023-07-28T12:40:09;27.30;43.60
13440;DHT22;6792;57.698;11.946;2023-07-28T12:42:38;27.50;43.40
13440;DHT22;6792;57.698;11.946;2023-07-28T12:45:09;27.60;43.10
13440;DHT22;6792;57.698;11.946;2023-07-28T12:47:39;27.80;42.90
13440;DHT22;6792;57.698;11.946;2023-07-28T12:50:10;27.90;42.70
13440;DHT22;6792;57.698;11.946;2023-07-28T12:52:39;28.10;42.50
13440;DHT22;6792;57.698;11.946;2023-07-28T12:55:09;28.20;42.30
13440;DHT22;6792;57.698;11.946;2023-07-28T12:57:39;28.50;42.20
13440;DHT22;6792;57.698;11.946;2023-07-28T13:00:11;28.70;41.90
13440;DHT22;6792;57.698;11.946;2023-07-28T13:02:42;28.90;41.60
13440;DHT22;6792;57.698;11.946;2023-07-28T13:05:12;29.20;41.40
13440;DHT22;6792;57.698;11.946;2023-07-28T13:07:43;29.50;40.90
13440;DHT22;6792;57.698;11.946;2023-07-28T13:10:12;29.60;40.00
13440;DHT22;6792;57.698;11.946;2023-07-28T13:12:41;30.00;40.00
13440;DHT22;6792;57.698;11.946;2023-07-28T13:15:11;30.20;40.10
13440;DHT22;6792;57.698;11.946;2023-07-28T13:17:40;30.50;39.90
13440;DHT22;6792;57.698;11.946;2023-07-28T13:20:10;30.90;39.60
13440;DHT22;6792;57.698;11.946;2023-07-28T13:22:39;31.20;38.70
13440;DHT22;6792;57.698;11.946;2023-07-28T13:25:09;31.60;39.00
13440;DHT22;6792;57.698;11.946;2023-07-28T13:27:38;32.00;38.70
13440;DHT22;6792;57.698;11.946;2023-07-28T13:30:10;32.40;38.40
13440;DHT22;6792;57.698;11.946;2023-07-28T13:32:39;32.80;38.20
13440;DHT22;6792;57.698;11.946;2023-07-28T13:35:09;33.70;38.30
13440;DHT22;6792;57.698;11.946;2023-07-28T13:37:38;34.70;37.60
13440;DHT22;6792;57.698;11.946;2023-07-28T13:40:08;35.80;36.80
13440;DHT22;6792;57.698;11.946;2023-07-28T13:42:38;37.10;36.00
13440;DHT22;6792;57.698;11.946;2023-07-28T13:45:09;38.50;34.80
13440;DHT22;6792;57.698;11.946;2023-07-28T13:47:38;39.80;33.60
13440;DHT22;6792;57.698;11.946;2023-07-28T13:50:09;41.00;32.30
13440;DHT22;6792;57.698;11.946;2023-07-28T13:52:38;42.10;31.10
13440;DHT22;6792;57.698;11.946;2023-07-28T13:55:09;43.30;30.00
13440;DHT22;6792;57.698;11.946;2023-07-28T13:57:38;44.30;29.00
13440;DHT22;6792;57.698;11.946;2023-07-28T14:00:09;45.20;28.20
13440;DHT22;6792;57.698;11.946;2023-07-28T14:02:40;46.10;27.40
13440;DHT22;6792;57.698;11.946;2023-07-28T14:05:10;47.00;26.60
13440;DHT22;6792;57.698;11.946;2023-07-28T14:07:39;47.60;25.80
13440;DHT22;6792;57.698;11.946;2023-07-28T14:10:10;48.30;25.20
13440;DHT22;6792;57.698;11.946;2023-07-28T14:12:42;48.80;24.50
13440;DHT22;6792;57.698;11.946;2023-07-28T14:15:11;49.20;24.00
13440;DHT22;6792;57.698;11.946;2023-07-28T14:17:40;49.30;23.30
13440;DHT22;6792;57.698;11.946;2023-07-28T14:20:11;48.80;22.70
13440;DHT22;6792;57.698;11.946;2023-07-28T14:22:40;47.70;22.40
13440;DHT22;6792;57.698;11.946;2023-07-28T14:25:09;46.40;22.50
13440;DHT22;6792;57.698;11.946;2023-07-28T14:27:39;45.10;22.80
13440;DHT22;6792;57.698;11.946;2023-07-28T14:30:11;43.80;23.20
13440;DHT22;6792;57.698;11.946;2023-07-28T14:32:40;42.70;23.70
13440;DHT22;6792;57.698;11.946;2023-07-28T14:35:09;41.60;24.10
13440;DHT22;6792;57.698;11.946;2023-07-28T14:37:39;40.60;24.60
13440;DHT22;6792;57.698;11.946;2023-07-28T14:40:10;39.70;25.00
13440;DHT22;6792;57.698;11.946;2023-07-28T14:42:39;38.90;25.40
13440;DHT22;6792;57.698;11.946;2023-07-28T14:45:10;38.10;25.80
13440;DHT22;6792;57.698;11.946;2023-07-28T14:47:39;37.40;26.20
13440;DHT22;6792;57.698;11.946;2023-07-28T14:50:09;36.60;26.20
13440;DHT22;6792;57.698;11.946;2023-07-28T14:52:40;36.10;27.10
13440;DHT22;6792;57.698;11.946;2023-07-28T14:55:09;35.50;27.40
13440;DHT22;6792;57.698;11.946;2023-07-28T14:57:39;35.00;27.70
13440;DHT22;6792;57.698;11.946;2023-07-28T15:00:10;34.40;28.10
13440;DHT22;6792;57.698;11.946;2023-07-28T15:02:40;34.00;28.40
13440;DHT22;6792;57.698;11.946;2023-07-28T15:05:09;33.50;28.70
13440;DHT22;6792;57.698;11.946;2023-07-28T15:07:38;33.00;29.00
13440;DHT22;6792;57.698;11.946;2023-07-28T15:10:09;32.70;29.40
13440;DHT22;6792;57.698;11.946;2023-07-28T15:12:38;32.30;29.70
13440;DHT22;6792;57.698;11.946;2023-07-28T15:15:09;32.00;29.90
13440;DHT22;6792;57.698;11.946;2023-07-28T15:17:39;31.70;30.20
13440;DHT22;6792;57.698;11.946;2023-07-28T15:20:10;31.50;30.70
13440;DHT22;6792;57.698;11.946;2023-07-28T15:22:39;31.30;31.20
13440;DHT22;6792;57.698;11.946;2023-07-28T15:25:09;31.00;31.60
13440;DHT22;6792;57.698;11.946;2023-07-28T15:27:38;30.80;32.10
13440;DHT22;6792;57.698;11.946;2023-07-28T15:30:11;30.60;32.50
13440;DHT22;6792;57.698;11.946;2023-07-28T15:32:40;30.30;32.80
13440;DHT22;6792;57.698;11.946;2023-07-28T15:35:10;30.10;33.20
13440;DHT22;6792;57.698;11.946;2023-07-28T15:37:39;29.90;33.70
13440;DHT22;6792;57.698;11.946;2023-07-28T15:40:10;29.70;34.00
13440;DHT22;6792;57.698;11.946;2023-07-28T15:42:39;29.50;34.40
13440;DHT22;6792;57.698;11.946;2023-07-28T15:45:09;29.40;34.80
13440;DHT22;6792;57.698;11.946;2023-07-28T15:47:41;29.20;35.00
13440;DHT22;6792;57.698;11.946;2023-07-28T15:50:11;29.00;35.20
13440;DHT22;6792;57.698;11.946;2023-07-28T15:52:40;28.90;36.10
13440;DHT22;6792;57.698;11.946;2023-07-28T15:55:09;28.80;35.80